createdAt,value
2022-08-18T00:01:50.295Z,100186.91
2022-08-18T00:04:34.813Z,100198.16
2022-08-18T00:07:10.878Z,100199.88
2022-08-18T00:09:39.583Z,100193.97
2022-08-18T00:12:20.799Z,100189.84
2022-08-18T00:14:48.597Z,100193.72
2022-08-18T00:17:16.347Z,100193.13
2022-08-18T00:19:46.924Z,100197.53
2022-08-18T00:22:19.990Z,100194.75
2022-08-18T00:24:55.520Z,100191.88
2022-08-18T00:27:28.948Z,100188.41
2022-08-18T00:29:58.711Z,100190.31
2022-08-18T00:32:34.647Z,100182.88
2022-08-18T00:35:30.048Z,100171.13
2022-08-18T00:37:59.878Z,100166.19
2022-08-18T00:40:34.477Z,100177.34
2022-08-18T00:43:06.047Z,100168.38
2022-08-18T00:45:36.726Z,100174.50
2022-08-18T00:48:04.843Z,100168.97
2022-08-18T00:51:00.662Z,100167.28
2022-08-18T00:53:45.949Z,100179.50
2022-08-18T00:56:26.227Z,100182.88
2022-08-18T00:58:58.465Z,100187.13
2022-08-18T01:01:27.534Z,100185.09
2022-08-18T01:04:00.492Z,100188.78
2022-08-18T01:06:32.520Z,100189.03
2022-08-18T01:09:00.162Z,100189.88
2022-08-18T01:11:29.563Z,100188.78
2022-08-18T01:13:58.342Z,100195.16
2022-08-18T01:16:57.682Z,100192.88
2022-08-18T01:19:44.055Z,100190.06
2022-08-18T01:22:22.963Z,100204.31
2022-08-18T01:25:10.226Z,100194.94
2022-08-18T01:27:37.951Z,100193.03
2022-08-18T01:30:10.464Z,100190.50
2022-08-18T01:32:38.731Z,100190.44
2022-08-18T01:35:11.644Z,100189.63
2022-08-18T01:37:41.415Z,100187.94
2022-08-18T01:41:17.242Z,100181.56
2022-08-18T01:42:57.767Z,100188.44
2022-08-18T01:45:25.429Z,100183.19
2022-08-18T01:47:53.144Z,100175.88
2022-08-18T01:50:21.158Z,100178.06
2022-08-18T01:52:50.212Z,100176.38
2022-08-18T01:55:18.327Z,100173.56
2022-08-18T01:57:46.920Z,100169.72
2022-08-18T02:00:16.118Z,100170.84
2022-08-18T02:02:44.040Z,100162.56
2022-08-18T02:05:24.674Z,100170.84
2022-08-18T02:07:55.913Z,100170.84
2022-08-18T02:10:23.777Z,100171.91
2022-08-18T02:12:51.983Z,100171.91
2022-08-18T02:15:19.720Z,100177.66
2022-08-18T02:17:47.672Z,100176.31
2022-08-18T02:20:16.913Z,100178.00
2022-08-18T02:22:46.925Z,100169.38
2022-08-18T02:25:14.736Z,100174.16
2022-08-18T02:27:43.081Z,100180.84
2022-08-18T02:30:12.838Z,100181.91
2022-08-18T02:32:40.584Z,100188.00
2022-08-18T02:35:11.534Z,100181.53
2022-08-18T02:37:42.972Z,100174.03
2022-08-18T02:40:15.154Z,100179.28
2022-08-18T02:42:45.065Z,100179.94
2022-08-18T02:45:13.666Z,100186.09
2022-08-18T02:47:42.979Z,100183.94
2022-08-18T02:50:13.371Z,100182.66
2022-08-18T02:52:41.533Z,100183.81
2022-08-18T02:55:10.007Z,100180.03
2022-08-18T02:57:42.461Z,100178.47
2022-08-18T03:00:13.713Z,100186.28
2022-08-18T03:02:42.327Z,100180.59
2022-08-18T03:05:14.827Z,100186.22
2022-08-18T03:07:43.278Z,100196.06
2022-08-18T03:10:31.829Z,100195.91
2022-08-18T03:12:59.231Z,100203.28
2022-08-18T03:15:26.920Z,100201.16
2022-08-18T03:17:56.370Z,100197.28
2022-08-18T03:20:30.396Z,100199.06
2022-08-18T03:22:59.766Z,100204.25
2022-08-18T03:25:33.671Z,100206.03
2022-08-18T03:30:30.304Z,100202.81
2022-08-18T03:32:58.479Z,100193.34
2022-08-18T03:35:26.131Z,100204.84
2022-08-18T03:37:56.028Z,100214.53
2022-08-18T03:40:23.800Z,100216.16
2022-08-18T03:42:51.391Z,100220.13
2022-08-18T03:45:19.753Z,100226.63
2022-08-18T03:47:47.460Z,100218.78
2022-08-18T03:50:15.069Z,100225.41
2022-08-18T03:52:42.630Z,100229.09
2022-08-18T03:55:10.266Z,100224.72
2022-08-18T03:57:39.319Z,100230.28
2022-08-18T04:00:09.829Z,100227.19
2022-08-18T04:02:37.410Z,100234.44
2022-08-18T04:05:08.441Z,100237.00
2022-08-18T04:07:37.952Z,100228.75
2022-08-18T04:10:06.054Z,100239.03
2022-08-18T04:12:43.452Z,100228.28
2022-08-18T04:15:11.944Z,100230.53
2022-08-18T04:18:03.435Z,100231.84
2022-08-18T04:20:27.333Z,100229.75
2022-08-18T04:22:55.848Z,100228.09
2022-08-18T04:25:23.594Z,100237.41
2022-08-18T04:27:51.325Z,100228.22
2022-08-18T04:30:19.096Z,100234.19
2022-08-18T04:32:46.648Z,100236.59
2022-08-18T04:35:14.781Z,100231.22
2022-08-18T04:37:44.055Z,100234.91
2022-08-18T04:40:13.559Z,100240.34
2022-08-18T04:42:43.517Z,100239.47
2022-08-18T04:45:11.229Z,100233.09
2022-08-18T04:47:41.769Z,100241.91
2022-08-18T04:50:10.502Z,100239.94
2022-08-18T04:52:56.920Z,100242.63
2022-08-18T04:55:24.601Z,100244.88
2022-08-18T04:57:52.662Z,100240.84
2022-08-18T05:00:20.617Z,100245.25
2022-08-18T05:02:48.943Z,100238.50
2022-08-18T05:05:16.739Z,100237.22
2022-08-18T05:07:46.035Z,100239.75
2022-08-18T05:10:17.934Z,100247.91
2022-08-18T05:12:47.725Z,100242.44
2022-08-18T05:15:15.265Z,100247.06
2022-08-18T05:17:50.503Z,100248.25
2022-08-18T05:20:19.336Z,100247.91
2022-08-18T05:22:47.505Z,100242.97
2022-08-18T05:25:16.316Z,100241.44
2022-08-18T05:27:45.244Z,100243.41
2022-08-18T05:30:15.476Z,100242.44
2022-08-18T05:32:48.147Z,100234.84
2022-08-18T05:35:25.886Z,100238.78
2022-08-18T05:37:57.367Z,100243.59
2022-08-18T05:40:25.208Z,100246.75
2022-08-18T05:42:54.041Z,100244.94
2022-08-18T05:45:21.631Z,100238.22
2022-08-18T05:47:49.463Z,100240.72
2022-08-18T05:50:20.071Z,100231.25
2022-08-18T05:53:13.226Z,100239.38
2022-08-18T05:56:05.521Z,100238.81
2022-08-18T05:58:42.271Z,100247.38
2022-08-18T06:01:19.138Z,100234.22
2022-08-18T06:03:50.609Z,100228.63
2022-08-18T06:06:29.915Z,100232.44
2022-08-18T06:09:18.171Z,100235.44
2022-08-18T06:11:45.928Z,100236.59
2022-08-18T06:14:14.331Z,100237.28
2022-08-18T06:16:42.375Z,100241.88
2022-08-18T06:19:46.768Z,100245.22
2022-08-18T06:22:29.836Z,100238.75
2022-08-18T06:25:26.683Z,100231.56
2022-08-18T06:28:14.826Z,100238.75
2022-08-18T06:30:42.866Z,100248.88
2022-08-18T06:33:35.212Z,100242.69
2022-08-18T06:36:08.957Z,100242.75
2022-08-18T06:38:46.307Z,100233.44
2022-08-18T06:41:41.964Z,100232.53
2022-08-18T06:44:13.135Z,100241.31
2022-08-18T06:46:53.864Z,100246.56
2022-08-18T06:49:24.681Z,100244.38
2022-08-18T06:51:52.399Z,100235.81
2022-08-18T06:54:19.831Z,100236.19
2022-08-18T06:56:49.676Z,100237.53
2022-08-18T06:59:19.084Z,100234.59
2022-08-18T07:01:47.797Z,100235.94
2022-08-18T07:04:38.478Z,100237.41
2022-08-18T07:07:21.033Z,100235.00
2022-08-18T07:09:49.539Z,100240.84
2022-08-18T07:12:30.499Z,100236.19
2022-08-18T07:15:01.982Z,100242.06
2022-08-18T07:17:42.290Z,100235.94
2022-08-18T07:20:18.803Z,100226.91
2022-08-18T07:23:01.212Z,100224.13
2022-08-18T07:25:32.199Z,100231.88
2022-08-18T07:28:02.040Z,100233.72
2022-08-18T07:30:37.537Z,100236.56
2022-08-18T07:33:08.041Z,100233.28
2022-08-18T07:35:39.369Z,100228.03
2022-08-18T07:38:40.885Z,100231.38
2022-08-18T07:41:16.183Z,100238.69
2022-08-18T07:43:51.984Z,100236.38
2022-08-18T07:46:45.850Z,100234.53
2022-08-18T07:49:24.937Z,100232.47
2022-08-18T07:52:03.939Z,100231.44
2022-08-18T07:54:50.481Z,100235.94
2022-08-18T07:57:24.772Z,100231.44
2022-08-18T08:00:20.689Z,100231.09
2022-08-18T08:03:01.568Z,100225.69
2022-08-18T08:05:48.684Z,100228.53
2022-08-18T08:08:25.477Z,100224.22
2022-08-18T08:10:56.318Z,100221.22
2022-08-18T08:13:53.405Z,100214.94
2022-08-18T08:16:48.550Z,100223.00
2022-08-18T08:20:01.273Z,100217.59
2022-08-18T08:22:33.468Z,100207.47
2022-08-18T08:25:28.337Z,100212.19
2022-08-18T08:28:07.508Z,100213.09
2022-08-18T08:30:45.882Z,100203.16
2022-08-18T08:33:44.413Z,100201.16
2022-08-18T08:36:17.570Z,100199.72
2022-08-18T08:38:49.736Z,100198.19
2022-08-18T08:41:26.756Z,100197.56
2022-08-18T08:44:09.539Z,100193.31
2022-08-18T08:47:23.420Z,100199.22
2022-08-18T08:50:00.603Z,100203.44
2022-08-18T08:52:44.738Z,100198.84
2022-08-18T08:55:19.417Z,100204.31
2022-08-18T08:57:54.284Z,100199.66
2022-08-18T09:00:21.997Z,100196.31
2022-08-18T09:03:29.888Z,100193.97
2022-08-18T09:06:17.204Z,100199.97
2022-08-18T09:09:08.744Z,100193.91
2022-08-18T09:11:50.292Z,100196.91
2022-08-18T09:14:27.214Z,100201.72
2022-08-18T09:17:16.180Z,100202.31
2022-08-18T09:20:19.136Z,100197.56
2022-08-18T09:22:55.046Z,100205.13
2022-08-18T09:25:37.950Z,100201.97
2022-08-18T09:28:15.079Z,100187.38
2022-08-18T09:31:08.833Z,100189.28
2022-08-18T09:33:40.805Z,100189.28
2022-08-18T09:36:51.762Z,100194.22
2022-08-18T09:45:34.043Z,100192.34
2022-08-18T09:48:11.554Z,100197.94
2022-08-18T09:50:37.043Z,100192.47
2022-08-18T09:50:56.020Z,100182.97
2022-08-18T09:53:54.412Z,100176.31
2022-08-18T09:56:53.585Z,100179.56
2022-08-18T09:59:35.209Z,100179.97
2022-08-18T10:02:22.614Z,100179.91
2022-08-18T10:05:21.276Z,100179.28
2022-08-18T10:08:21.542Z,100179.78
2022-08-18T10:11:16.752Z,100177.41
2022-08-18T10:14:33.645Z,100178.78
2022-08-18T10:17:23.965Z,100173.88
2022-08-18T10:20:26.237Z,100164.06
2022-08-18T10:23:01.818Z,100160.34
2022-08-18T10:25:35.328Z,100157.16
2022-08-18T10:28:05.886Z,100153.59
2022-08-18T10:30:52.684Z,100153.66
2022-08-18T10:33:57.545Z,100151.81
2022-08-18T10:36:38.589Z,100155.03
2022-08-18T10:39:11.021Z,100152.13
2022-08-18T10:41:57.509Z,100151.81
2022-08-18T10:44:29.581Z,100152.50
2022-08-18T10:46:59.600Z,100156.75
2022-08-18T10:49:29.193Z,100155.78
2022-08-18T10:51:59.230Z,100165.69
2022-08-18T10:54:50.791Z,100161.31
2022-08-18T10:57:45.843Z,100167.78
2022-08-18T11:00:18.751Z,100163.56
2022-08-18T11:03:42.288Z,100163.47
2022-08-18T11:06:18.041Z,100161.53
2022-08-18T11:08:54.866Z,100158.75
2022-08-18T11:11:53.055Z,100163.44
2022-08-18T11:14:49.970Z,100164.88
2022-08-18T11:17:54.966Z,100160.72
2022-08-18T11:20:24.461Z,100163.44
2022-08-18T11:23:00.467Z,100158.63
2022-08-18T11:25:34.117Z,100152.75
2022-08-18T11:28:02.433Z,100149.66
2022-08-18T11:30:37.878Z,100151.19
2022-08-18T11:33:08.690Z,100147.44
2022-08-18T11:35:58.231Z,100144.16
2022-08-18T11:38:29.621Z,100141.69
2022-08-18T11:41:17.788Z,100137.53
2022-08-18T11:43:48.297Z,100135.50
2022-08-18T11:46:29.368Z,100134.34
2022-08-18T11:49:00.533Z,100136.47
2022-08-18T11:51:30.649Z,100131.28
2022-08-18T11:54:05.222Z,100127.13
2022-08-18T11:56:38.456Z,100124.19
2022-08-18T11:59:08.484Z,100117.81
2022-08-18T12:01:51.213Z,100133.59
2022-08-18T12:04:21.279Z,100124.88
2022-08-18T12:07:00.815Z,100135.81
2022-08-18T12:12:32.564Z,100131.56
2022-08-18T12:15:25.064Z,100121.28
2022-08-18T12:17:57.323Z,100132.16
2022-08-18T12:20:25.926Z,100137.72
2022-08-18T12:22:54.867Z,100130.13
2022-08-18T12:25:24.556Z,100132.94
2022-08-18T12:27:54.871Z,100126.13
2022-08-18T12:30:23.346Z,100123.16
2022-08-18T12:33:01.002Z,100123.59
2022-08-18T12:35:42.312Z,100120.25
2022-08-18T12:40:59.118Z,100130.19
2022-08-18T12:43:27.880Z,100141.84
2022-08-18T12:46:00.621Z,100154.75
2022-08-18T12:48:29.361Z,100154.25
2022-08-18T12:50:58.405Z,100157.03
2022-08-18T12:53:38.357Z,100168.75
2022-08-18T12:56:27.363Z,100167.97
2022-08-18T12:58:55.986Z,100156.91
2022-08-18T13:01:25.439Z,100161.91
2022-08-18T13:04:11.673Z,100167.84
2022-08-18T13:07:00.527Z,100156.59
2022-08-18T13:09:34.779Z,100157.31
2022-08-18T13:12:17.501Z,100147.09
2022-08-18T13:14:46.679Z,100143.97
2022-08-18T13:17:28.996Z,100134.59
2022-08-18T13:20:11.587Z,100133.03
2022-08-18T13:22:42.009Z,100147.16
2022-08-18T13:25:12.183Z,100150.94
2022-08-18T13:27:45.699Z,100153.97
2022-08-18T13:30:29.157Z,100149.44
2022-08-18T13:33:02.518Z,100165.03
2022-08-18T13:35:44.213Z,100160.88
2022-08-18T13:38:20.673Z,100164.97
2022-08-18T13:40:50.703Z,100174.69
2022-08-18T13:43:23.342Z,100173.78
2022-08-18T13:45:52.961Z,100173.16
2022-08-18T13:48:25.826Z,100167.84
2022-08-18T13:50:55.743Z,100170.75
2022-08-18T13:53:24.832Z,100177.28
2022-08-18T13:56:02.161Z,100182.06
2022-08-18T13:58:32.417Z,100181.16
2022-08-18T14:01:41.990Z,100188.53
2022-08-18T14:03:52.817Z,100193.47
2022-08-18T14:06:23.703Z,100188.50
2022-08-18T14:08:52.505Z,100196.91
2022-08-18T14:11:32.886Z,100198.88
2022-08-18T14:14:02.317Z,100195.81
2022-08-18T14:16:32.350Z,100209.63
2022-08-18T14:19:22.587Z,100216.53
2022-08-18T14:22:12.562Z,100216.38
2022-08-18T14:25:00.423Z,100210.59
2022-08-18T14:27:35.627Z,100210.50
2022-08-18T14:30:09.171Z,100214.47
2022-08-18T14:32:59.619Z,100215.94
2022-08-18T14:36:04.495Z,100214.50
2022-08-18T14:38:16.228Z,100210.78
2022-08-18T14:40:44.460Z,100210.78
2022-08-18T14:43:14.196Z,100217.41
2022-08-18T14:45:48.711Z,100224.75
2022-08-18T14:48:18.713Z,100223.50
2022-08-18T14:50:49.364Z,100224.38
2022-08-18T14:53:20.473Z,100213.41
2022-08-18T14:55:52.566Z,100214.00
2022-08-18T14:58:26.880Z,100212.94
2022-08-18T15:01:00.034Z,100211.91
2022-08-18T15:03:31.562Z,100214.69
2022-08-18T15:06:04.645Z,100214.44
2022-08-18T15:08:36.007Z,100207.41
2022-08-18T15:11:11.813Z,100212.50
2022-08-18T15:13:45.236Z,100219.63
2022-08-18T15:16:20.589Z,100221.59
2022-08-18T15:18:56.129Z,100221.69
2022-08-18T15:21:42.967Z,100208.72
2022-08-18T15:24:29.306Z,100207.63
2022-08-18T15:27:05.600Z,100208.16
2022-08-18T15:29:34.915Z,100209.28
2022-08-18T15:32:06.178Z,100208.06
2022-08-18T15:34:47.194Z,100212.91
2022-08-18T15:37:22.308Z,100212.25
2022-08-18T15:40:21.731Z,100198.97
2022-08-18T15:43:01.758Z,100205.16
2022-08-18T15:45:35.619Z,100209.94
2022-08-18T15:48:10.844Z,100202.75
2022-08-18T15:50:41.791Z,100196.63
2022-08-18T15:53:09.568Z,100196.69
2022-08-18T15:55:39.283Z,100194.31
2022-08-18T15:58:11.179Z,100198.09
2022-08-18T16:00:46.073Z,100199.53
2022-08-18T16:03:16.917Z,100202.41
2022-08-18T16:05:53.083Z,100197.88
2022-08-18T16:08:23.696Z,100211.34
2022-08-18T16:10:54.183Z,100211.75
2022-08-18T16:13:22.707Z,100224.78
2022-08-18T16:15:50.724Z,100244.28
2022-08-18T16:18:19.324Z,100246.75
2022-08-18T16:20:47.249Z,100249.63
2022-08-18T16:23:15.720Z,100239.44
2022-08-18T16:25:43.729Z,100233.34
2022-08-18T16:28:13.489Z,100247.47
2022-08-18T16:30:41.667Z,100237.47
2022-08-18T16:33:09.693Z,100239.22
2022-08-18T16:35:37.651Z,100239.56
2022-08-18T16:38:09.080Z,100245.22
2022-08-18T16:40:36.989Z,100241.81
2022-08-18T16:43:06.872Z,100249.13
2022-08-18T16:45:36.995Z,100253.66
2022-08-18T16:48:06.617Z,100245.56
2022-08-18T16:50:35.715Z,100244.94
2022-08-18T16:53:04.875Z,100242.31
2022-08-18T16:55:32.428Z,100249.09
2022-08-18T16:58:18.781Z,100248.50
2022-08-18T17:01:05.076Z,100239.16
2022-08-18T17:03:51.888Z,100240.66
2022-08-18T17:06:19.672Z,100236.84
2022-08-18T17:08:47.307Z,100245.06
2022-08-18T17:11:17.369Z,100237.75
2022-08-18T17:13:45.813Z,100247.22
2022-08-18T17:16:13.697Z,100240.84
2022-08-18T17:18:41.397Z,100226.31
2022-08-18T17:21:10.736Z,100229.94
2022-08-18T17:23:39.213Z,100232.25
2022-08-18T17:26:08.348Z,100229.16
2022-08-18T17:28:50.238Z,100230.59
2022-08-18T17:31:20.793Z,100229.03
2022-08-18T17:33:49.124Z,100226.97
2022-08-18T17:36:23.528Z,100229.16
2022-08-18T17:38:54.501Z,100221.94
2022-08-18T17:41:23.774Z,100218.63
2022-08-18T17:43:52.455Z,100209.41
2022-08-18T17:46:29.338Z,100212.25
2022-08-18T17:49:06.432Z,100212.63
2022-08-18T17:51:46.940Z,100205.16
2022-08-18T17:54:23.509Z,100216.28
2022-08-18T17:56:55.469Z,100203.75
2022-08-18T17:59:45.479Z,100220.19
2022-08-18T18:02:29.163Z,100217.41
2022-08-18T18:05:02.733Z,100207.69
2022-08-18T18:07:56.825Z,100212.16
2022-08-18T18:10:37.736Z,100213.25
2022-08-18T18:13:12.329Z,100215.50
2022-08-18T18:15:46.755Z,100221.94
2022-08-18T18:18:21.843Z,100212.19
2022-08-18T18:21:14.699Z,100213.94
2022-08-18T18:23:46.052Z,100212.84
2022-08-18T18:26:48.735Z,100214.78
2022-08-18T18:29:19.491Z,100209.53
2022-08-18T18:32:27.652Z,100207.28
2022-08-18T18:35:27.444Z,100210.63
2022-08-18T18:38:00.735Z,100213.72
2022-08-18T18:40:39.452Z,100215.66
2022-08-18T18:43:29.007Z,100224.31
2022-08-18T18:46:18.660Z,100205.06
2022-08-18T18:48:52.208Z,100192.28
2022-08-18T18:51:33.948Z,100197.28
2022-08-18T18:54:33.106Z,100193.94
2022-08-18T18:57:00.739Z,100188.13
2022-08-18T18:59:49.198Z,100176.69
2022-08-18T19:02:46.247Z,100177.78
2022-08-18T19:05:27.176Z,100178.38
2022-08-18T19:08:15.940Z,100173.88
2022-08-18T19:11:11.754Z,100164.72
2022-08-18T19:13:42.254Z,100174.44
2022-08-18T19:16:23.698Z,100178.09
2022-08-18T19:19:38.108Z,100174.47
2022-08-18T19:22:03.122Z,100188.13
2022-08-18T19:24:41.363Z,100187.28
2022-08-18T19:27:23.209Z,100185.88
2022-08-18T19:29:52.480Z,100191.69
2022-08-18T19:32:27.533Z,100189.22
2022-08-18T19:34:55.954Z,100190.28
2022-08-18T19:37:33.015Z,100193.38
2022-08-18T19:40:17.516Z,100190.88
2022-08-18T19:43:06.722Z,100193.66
2022-08-18T19:45:58.033Z,100197.53
2022-08-18T19:48:34.970Z,100201.13
2022-08-18T19:51:10.347Z,100203.06
2022-08-18T19:53:53.767Z,100205.47
2022-08-18T19:56:32.896Z,100197.41
2022-08-18T19:59:26.809Z,100204.59
2022-08-18T20:02:21.372Z,100199.81
2022-08-18T20:05:04.026Z,100201.50
2022-08-18T20:07:55.261Z,100199.28
2022-08-18T20:10:31.196Z,100205.66
2022-08-18T20:13:09.250Z,100213.94
2022-08-18T20:15:37.077Z,100218.59
2022-08-18T20:18:18.231Z,100205.97
2022-08-18T20:20:45.935Z,100217.91
2022-08-18T20:23:34.162Z,100207.81
2022-08-18T20:26:01.855Z,100210.50
2022-08-18T20:28:39.085Z,100203.34
2022-08-18T20:31:13.096Z,100200.00
2022-08-18T20:34:04.254Z,100206.38
2022-08-18T20:36:36.734Z,100218.31
2022-08-18T20:39:32.348Z,100215.19
2022-08-18T20:42:04.434Z,100218.84
2022-08-18T20:44:44.247Z,100208.16
2022-08-18T20:47:46.130Z,100216.22
2022-08-18T20:50:38.332Z,100196.69
2022-08-18T20:53:50.387Z,100193.84
2022-08-18T20:56:31.954Z,100196.38
2022-08-18T20:59:08.664Z,100199.44
2022-08-18T21:01:37.339Z,100194.13
2022-08-18T21:04:06.910Z,100197.50
2022-08-18T21:06:42.169Z,100199.72
2022-08-18T21:09:10.608Z,100208.88
2022-08-18T21:11:44.236Z,100206.63
2022-08-18T21:14:13.134Z,100205.00
2022-08-18T21:16:45.205Z,100204.72
2022-08-18T21:19:27.683Z,100203.25
2022-08-18T21:22:04.150Z,100210.13
2022-08-18T21:24:39.009Z,100210.13
2022-08-18T21:27:07.689Z,100213.44
2022-08-18T21:29:42.247Z,100202.22
2022-08-18T21:32:20.133Z,100205.59
2022-08-18T21:37:17.339Z,100208.38
2022-08-18T21:39:52.979Z,100204.16
2022-08-18T21:42:41.361Z,100205.41
2022-08-18T21:45:19.423Z,100201.56
2022-08-18T21:47:56.634Z,100199.38
2022-08-18T21:50:29.252Z,100191.34
2022-08-18T21:53:01.319Z,100182.13
2022-08-18T21:55:40.737Z,100181.19
2022-08-18T21:58:18.200Z,100179.81
2022-08-18T22:01:04.949Z,100178.50
2022-08-18T22:03:32.780Z,100174.34
2022-08-18T22:06:13.797Z,100182.91
2022-08-18T22:08:49.744Z,100181.28
2022-08-18T22:11:59.580Z,100182.13
2022-08-18T22:14:53.529Z,100191.56
2022-08-18T22:17:29.572Z,100187.38
2022-08-18T22:20:35.524Z,100182.81
2022-08-18T22:23:24.893Z,100180.84
2022-08-18T22:25:52.691Z,100185.63
2022-08-18T22:28:24.318Z,100180.16
2022-08-18T22:30:55.066Z,100184.34
2022-08-18T22:33:23.576Z,100183.81
2022-08-18T22:35:57.459Z,100179.13
2022-08-18T22:38:25.472Z,100184.44
2022-08-18T22:40:53.077Z,100179.25
2022-08-18T22:43:20.665Z,100180.38
2022-08-18T22:45:48.261Z,100178.44
2022-08-18T22:48:16.638Z,100184.19
2022-08-18T22:50:46.195Z,100188.38
2022-08-18T22:53:14.369Z,100182.84
2022-08-18T22:55:41.936Z,100179.53
2022-08-18T22:58:09.645Z,100176.19
2022-08-18T23:00:39.724Z,100177.28
2022-08-18T23:03:09.839Z,100171.75
2022-08-18T23:05:37.539Z,100161.75
2022-08-18T23:08:05.833Z,100174.44
2022-08-18T23:10:33.542Z,100180.25
2022-08-18T23:13:04.455Z,100169.59
2022-08-18T23:15:47.623Z,100179.22
2022-08-18T23:18:19.955Z,100175.03
2022-08-18T23:21:00.247Z,100183.00
2022-08-18T23:23:28.832Z,100177.63
2022-08-18T23:25:56.558Z,100175.38
2022-08-18T23:28:27.260Z,100167.81
2022-08-18T23:30:58.104Z,100170.06
2022-08-18T23:33:26.146Z,100172.56
2022-08-18T23:35:53.849Z,100170.41
2022-08-18T23:38:21.598Z,100175.66
2022-08-18T23:40:59.093Z,100175.59
2022-08-18T23:43:26.680Z,100186.63
2022-08-18T23:45:54.249Z,100181.31
2022-08-18T23:48:22.423Z,100178.22
2022-08-18T23:50:50.128Z,100190.72
2022-08-18T23:53:18.986Z,100200.69
2022-08-18T23:55:46.656Z,100193.28
2022-08-18T23:58:14.285Z,100191.75
